createdAt,value
2019-04-28T00:01:25.927Z,7.00
2019-04-28T00:03:55.543Z,6.50
2019-04-28T00:06:25.469Z,7.53
2019-04-28T00:08:55.071Z,8.80
2019-04-28T00:11:24.636Z,7.37
2019-04-28T00:13:54.263Z,6.87
2019-04-28T00:16:23.970Z,7.45
2019-04-28T00:18:53.554Z,7.10
2019-04-28T00:21:37.883Z,7.72
2019-04-28T00:24:41.749Z,7.60
2019-04-28T00:27:13.680Z,6.62
2019-04-28T00:29:46.023Z,7.33
2019-04-28T00:32:14.912Z,6.75
2019-04-28T00:34:44.518Z,6.40
2019-04-28T00:37:23.742Z,5.35
2019-04-28T00:39:53.357Z,6.53
2019-04-28T00:42:23.207Z,6.25
2019-04-28T00:44:52.766Z,6.40
2019-04-28T00:47:22.375Z,5.33
2019-04-28T00:49:52.198Z,6.92
2019-04-28T00:52:22.317Z,5.42
2019-04-28T00:54:52.679Z,5.17
2019-04-28T00:57:22.878Z,5.25
2019-04-28T00:59:58.239Z,4.70
2019-04-28T01:02:41.477Z,5.08
2019-04-28T01:05:12.467Z,5.97
2019-04-28T01:07:42.106Z,5.30
2019-04-28T01:10:12.471Z,5.15
2019-04-28T01:12:42.135Z,5.60
2019-04-28T01:15:16.504Z,5.22
2019-04-28T01:17:54.791Z,4.45
2019-04-28T01:20:24.759Z,5.85
2019-04-28T01:22:54.341Z,5.17
2019-04-28T01:25:23.958Z,6.45
2019-04-28T01:27:54.958Z,4.83
2019-04-28T01:30:43.888Z,5.08
2019-04-28T01:33:20.649Z,4.78
2019-04-28T01:35:50.477Z,4.17
2019-04-28T01:38:20.441Z,5.08
2019-04-28T01:40:50.093Z,4.30
2019-04-28T01:43:19.971Z,4.72
2019-04-28T01:45:50.245Z,5.03
2019-04-28T01:48:20.088Z,4.78
2019-04-28T01:50:50.087Z,4.78
2019-04-28T01:53:20.042Z,5.03
2019-04-28T01:55:49.920Z,4.85
2019-04-28T01:58:20.437Z,5.35
2019-04-28T02:00:50.615Z,4.72
2019-04-28T02:03:20.692Z,4.67
2019-04-28T02:05:50.299Z,4.55
2019-04-28T02:08:20.347Z,5.55
2019-04-28T02:10:50.244Z,5.08
2019-04-28T02:13:19.993Z,3.95
2019-04-28T02:15:50.220Z,3.83
2019-04-28T02:18:20.045Z,4.30
2019-04-28T02:20:55.346Z,4.08
2019-04-28T02:23:29.901Z,4.50
2019-04-28T02:25:59.764Z,4.97
2019-04-28T02:28:29.687Z,4.50
2019-04-28T02:31:02.093Z,3.67
2019-04-28T02:33:31.234Z,4.60
2019-04-28T02:36:01.570Z,5.30
2019-04-28T02:38:34.226Z,4.50
2019-04-28T02:41:03.104Z,4.60
2019-04-28T02:43:32.672Z,4.60
2019-04-28T02:46:02.471Z,5.28
2019-04-28T02:48:32.339Z,4.20
2019-04-28T02:51:07.467Z,4.78
2019-04-28T02:53:40.985Z,4.75
2019-04-28T02:56:11.259Z,3.90
2019-04-28T02:58:41.777Z,4.80
2019-04-28T03:01:22.062Z,5.45
2019-04-28T03:03:42.877Z,5.03
2019-04-28T03:06:12.463Z,5.83
2019-04-28T03:08:42.226Z,4.80
2019-04-28T03:11:11.775Z,4.75
2019-04-28T03:13:41.642Z,5.10
2019-04-28T03:16:11.235Z,5.10
2019-04-28T03:18:41.428Z,4.72
2019-04-28T03:21:11.607Z,5.50
2019-04-28T03:23:41.256Z,4.95
2019-04-28T03:26:30.954Z,5.25
2019-04-28T03:29:06.811Z,5.30
2019-04-28T03:32:16.359Z,4.70
2019-04-28T03:34:23.309Z,4.65
2019-04-28T03:36:53.121Z,4.72
2019-04-28T03:39:22.695Z,5.40
2019-04-28T03:41:52.301Z,4.65
2019-04-28T03:44:21.943Z,4.80
2019-04-28T03:46:54.087Z,5.37
2019-04-28T03:49:35.667Z,4.78
2019-04-28T03:52:06.542Z,5.95
2019-04-28T03:54:36.109Z,6.75
2019-04-28T03:57:05.837Z,5.78
2019-04-28T03:59:35.699Z,6.03
2019-04-28T04:02:05.301Z,5.90
2019-04-28T04:04:34.899Z,5.72
2019-04-28T04:07:04.425Z,6.08
2019-04-28T04:10:00.880Z,6.15
2019-04-28T04:12:50.867Z,6.87
2019-04-28T04:15:54.878Z,7.90
2019-04-28T04:18:34.121Z,5.85
2019-04-28T04:21:03.707Z,6.70
2019-04-28T04:23:33.274Z,6.08
2019-04-28T04:26:02.843Z,5.70
2019-04-28T04:28:32.557Z,6.83
2019-04-28T04:31:03.226Z,6.22
2019-04-28T04:33:33.054Z,7.28
2019-04-28T04:36:02.667Z,7.90
2019-04-28T04:38:32.316Z,7.55
2019-04-28T04:41:02.015Z,6.80
2019-04-28T04:43:32.098Z,6.83
2019-04-28T04:46:21.937Z,7.50
2019-04-28T04:48:51.121Z,6.33
2019-04-28T04:51:21.627Z,6.60
2019-04-28T04:53:51.703Z,6.45
2019-04-28T04:56:21.724Z,6.80
2019-04-28T04:58:51.560Z,6.10
2019-04-28T05:01:42.911Z,6.65
2019-04-28T05:04:40.568Z,7.00
2019-04-28T05:07:10.875Z,5.92
2019-04-28T05:09:40.763Z,6.25
2019-04-28T05:12:10.341Z,5.85
2019-04-28T05:14:39.929Z,6.95
2019-04-28T05:17:10.432Z,6.75
2019-04-28T05:19:40.337Z,6.22
2019-04-28T05:22:10.862Z,6.22
2019-04-28T05:24:51.118Z,7.00
2019-04-28T05:27:22.198Z,6.28
2019-04-28T05:29:51.523Z,7.17
2019-04-28T05:32:21.139Z,6.42
2019-04-28T05:34:52.882Z,5.55
2019-04-28T05:37:21.996Z,6.47
2019-04-28T05:39:52.579Z,5.72
2019-04-28T05:42:22.290Z,5.80
2019-04-28T05:44:51.838Z,5.65
2019-04-28T05:47:21.991Z,6.40
2019-04-28T05:50:14.687Z,7.22
2019-04-28T05:53:03.482Z,7.53
2019-04-28T05:55:55.054Z,7.92
2019-04-28T05:59:00.572Z,6.10
2019-04-28T06:01:54.941Z,7.30
2019-04-28T06:04:27.410Z,6.22
2019-04-28T06:07:02.317Z,6.42
2019-04-28T06:09:39.876Z,6.33
2019-04-28T06:12:11.932Z,7.17
2019-04-28T06:14:41.521Z,6.40
2019-04-28T06:17:11.102Z,6.33
2019-04-28T06:19:40.757Z,6.72
2019-04-28T06:22:10.342Z,6.90
2019-04-28T06:24:40.525Z,6.42
2019-04-28T06:27:10.050Z,7.62
2019-04-28T06:29:39.707Z,7.67
2019-04-28T06:32:09.543Z,6.22
2019-04-28T06:34:39.186Z,6.78
2019-04-28T06:37:09.007Z,6.22
2019-04-28T06:39:39.119Z,7.40
2019-04-28T06:42:08.677Z,7.33
2019-04-28T06:44:38.244Z,6.97
2019-04-28T06:47:07.838Z,7.28
2019-04-28T06:49:37.451Z,7.30
2019-04-28T06:52:07.063Z,6.40
2019-04-28T06:54:36.629Z,6.47
2019-04-28T06:57:06.490Z,7.78
2019-04-28T06:59:36.370Z,7.83
2019-04-28T07:02:06.203Z,7.97
2019-04-28T07:04:35.796Z,7.42
2019-04-28T07:07:05.705Z,8.15
2019-04-28T07:09:35.596Z,7.37
2019-04-28T07:12:05.242Z,8.55
2019-04-28T07:14:34.935Z,8.85
2019-04-28T07:17:04.463Z,7.62
2019-04-28T07:19:34.075Z,7.85
2019-04-28T07:22:09.020Z,8.15
2019-04-28T07:24:38.867Z,7.33
2019-04-28T07:27:08.779Z,7.90
2019-04-28T07:29:38.405Z,6.47
2019-04-28T07:32:08.021Z,7.45
2019-04-28T07:34:37.657Z,7.03
2019-04-28T07:37:07.198Z,7.72
2019-04-28T07:39:36.835Z,7.42
2019-04-28T07:42:06.384Z,8.83
2019-04-28T07:44:35.994Z,8.25
2019-04-28T07:47:05.548Z,7.37
2019-04-28T07:49:35.131Z,7.55
2019-04-28T07:52:12.336Z,8.18
2019-04-28T07:54:41.968Z,8.18
2019-04-28T07:57:11.513Z,7.10
2019-04-28T07:59:41.304Z,7.30
2019-04-28T08:02:10.895Z,9.43
2019-04-28T08:04:40.648Z,7.80
2019-04-28T08:07:10.206Z,8.20
2019-04-28T08:09:39.873Z,7.70
2019-04-28T08:12:09.456Z,8.48
2019-04-28T08:14:39.466Z,8.20
2019-04-28T08:17:09.048Z,9.35
2019-04-28T08:19:38.650Z,8.48
2019-04-28T08:22:08.243Z,8.90
2019-04-28T08:24:37.855Z,8.45
2019-04-28T08:27:07.706Z,8.35
2019-04-28T08:29:37.311Z,7.97
2019-04-28T08:32:34.879Z,11.15
2019-04-28T08:35:04.718Z,8.90
2019-04-28T08:37:34.296Z,10.50
2019-04-28T08:40:03.934Z,11.03
2019-04-28T08:42:33.746Z,10.30
2019-04-28T08:45:03.367Z,12.25
2019-04-28T08:47:32.929Z,10.82
2019-04-28T08:50:02.736Z,10.72
2019-04-28T08:52:32.374Z,11.28
2019-04-28T08:55:02.203Z,10.72
2019-04-28T08:57:31.801Z,10.58
2019-04-28T09:00:01.414Z,11.53
2019-04-28T09:02:30.996Z,11.83
2019-04-28T09:05:00.877Z,11.95
2019-04-28T09:07:30.462Z,12.10
2019-04-28T09:10:00.080Z,11.90
2019-04-28T09:12:30.032Z,11.60
2019-04-28T09:14:59.860Z,11.28
2019-04-28T09:17:29.470Z,10.55
2019-04-28T09:19:59.091Z,10.10
2019-04-28T09:22:28.667Z,10.60
2019-04-28T09:24:58.403Z,10.60
2019-04-28T09:27:28.001Z,10.78
2019-04-28T09:29:58.154Z,10.58
2019-04-28T09:32:27.785Z,10.20
2019-04-28T09:34:57.400Z,8.93
2019-04-28T09:37:27.027Z,10.20
2019-04-28T09:40:08.362Z,8.30
2019-04-28T09:42:56.877Z,7.62
2019-04-28T09:45:32.470Z,7.15
2019-04-28T09:48:02.069Z,7.72
2019-04-28T09:50:31.679Z,7.55
2019-04-28T09:53:01.579Z,7.85
2019-04-28T09:55:31.176Z,8.80
2019-04-28T09:58:01.050Z,7.58
2019-04-28T10:00:30.597Z,6.15
2019-04-28T10:03:00.540Z,5.45
2019-04-28T10:05:33.183Z,4.35
2019-04-28T10:08:02.778Z,4.67
2019-04-28T10:10:32.622Z,4.80
2019-04-28T10:13:02.472Z,4.47
2019-04-28T10:15:32.126Z,3.42
2019-04-28T10:18:01.753Z,3.60
2019-04-28T10:20:34.361Z,3.47
2019-04-28T10:23:06.260Z,3.10
2019-04-28T10:25:35.849Z,2.77
2019-04-28T10:28:06.451Z,2.35
2019-04-28T10:30:36.555Z,3.35
2019-04-28T10:33:06.295Z,2.75
2019-04-28T10:35:36.080Z,2.95
2019-04-28T10:38:05.999Z,3.37
2019-04-28T10:41:02.197Z,2.95
2019-04-28T10:43:31.777Z,2.72
2019-04-28T10:46:01.730Z,2.37
2019-04-28T10:48:31.744Z,2.80
2019-04-28T10:51:01.588Z,2.25
2019-04-28T10:53:31.239Z,3.05
2019-04-28T10:56:01.106Z,3.15
2019-04-28T10:58:30.738Z,2.60
2019-04-28T11:01:01.269Z,2.37
2019-04-28T11:03:31.523Z,2.17
2019-04-28T11:06:01.159Z,2.10
2019-04-28T11:08:56.056Z,2.30
2019-04-28T11:11:27.569Z,2.70
2019-04-28T11:14:00.811Z,2.67
2019-04-28T11:16:35.052Z,2.35
2019-04-28T11:19:07.204Z,2.90
2019-04-28T11:21:37.091Z,1.98
2019-04-28T11:24:06.911Z,2.80
2019-04-28T11:26:36.496Z,2.90
2019-04-28T11:29:06.390Z,3.05
2019-04-28T11:31:36.076Z,3.70
2019-04-28T11:34:17.413Z,3.93
2019-04-28T11:36:47.037Z,4.33
2019-04-28T11:39:22.610Z,3.67
2019-04-28T11:41:52.303Z,3.55
2019-04-28T11:44:21.983Z,3.33
2019-04-28T11:46:51.550Z,4.25
2019-04-28T11:49:21.135Z,3.80
2019-04-28T11:51:50.792Z,4.20
2019-04-28T11:54:20.323Z,3.80
2019-04-28T11:56:50.491Z,4.22
2019-04-28T11:59:21.308Z,3.92
2019-04-28T12:01:51.327Z,3.90
2019-04-28T12:04:21.291Z,4.55
2019-04-28T12:06:51.207Z,4.00
2019-04-28T12:10:04.797Z,4.65
2019-04-28T12:12:35.832Z,5.30
2019-04-28T12:15:17.830Z,5.10
2019-04-28T12:18:06.997Z,5.83
2019-04-28T12:20:36.646Z,5.25
2019-04-28T12:23:06.512Z,5.25
2019-04-28T12:25:36.071Z,6.40
2019-04-28T12:28:05.861Z,6.62
2019-04-28T12:30:35.449Z,6.90
2019-04-28T12:33:05.127Z,6.80
2019-04-28T12:35:46.810Z,6.47
2019-04-28T12:38:06.047Z,6.95
2019-04-28T12:40:35.614Z,5.87
2019-04-28T12:43:05.296Z,5.85
2019-04-28T12:45:35.616Z,5.03
2019-04-28T12:48:07.137Z,5.67
2019-04-28T12:50:42.757Z,5.22
2019-04-28T12:53:12.323Z,4.90
2019-04-28T12:55:41.959Z,5.25
2019-04-28T12:58:11.593Z,4.97
2019-04-28T13:01:00.167Z,6.15
2019-04-28T13:03:48.871Z,4.35
2019-04-28T13:06:19.220Z,4.97
2019-04-28T13:08:48.809Z,5.80
2019-04-28T13:11:18.696Z,5.90
2019-04-28T13:13:48.544Z,6.70
2019-04-28T13:16:18.229Z,5.92
2019-04-28T13:18:47.836Z,5.95
2019-04-28T13:21:17.530Z,5.20
2019-04-28T13:23:47.125Z,5.58
2019-04-28T13:26:17.292Z,5.67
2019-04-28T13:28:46.892Z,5.80
2019-04-28T13:31:16.518Z,6.25
2019-04-28T13:33:55.716Z,6.20
2019-04-28T13:36:17.496Z,5.78
2019-04-28T13:38:47.153Z,5.50
2019-04-28T13:41:16.759Z,5.78
2019-04-28T13:43:46.403Z,5.35
2019-04-28T13:46:16.008Z,6.27
2019-04-28T13:48:45.670Z,5.77
2019-04-28T13:51:15.265Z,5.63
2019-04-28T13:53:44.929Z,5.30
2019-04-28T13:56:14.527Z,7.13
2019-04-28T13:58:51.671Z,6.30
2019-04-28T14:01:38.900Z,7.17
2019-04-28T14:04:21.663Z,6.43
2019-04-28T14:06:54.314Z,6.90
2019-04-28T14:09:24.276Z,6.80
2019-04-28T14:11:54.035Z,6.97
2019-04-28T14:14:26.110Z,5.77
2019-04-28T14:16:57.889Z,6.60
2019-04-28T14:19:28.457Z,6.67
2019-04-28T14:21:58.087Z,7.07
2019-04-28T14:24:27.894Z,6.50
2019-04-28T14:26:57.605Z,5.87
2019-04-28T14:29:27.741Z,5.43
2019-04-28T14:31:57.435Z,5.47
2019-04-28T14:34:27.331Z,5.20
2019-04-28T14:36:57.134Z,5.73
2019-04-28T14:39:28.472Z,5.63
2019-04-28T14:41:58.353Z,6.33
2019-04-28T14:44:27.944Z,5.80
2019-04-28T14:46:57.693Z,5.33
2019-04-28T14:49:27.623Z,4.50
2019-04-28T14:51:57.244Z,4.60
2019-04-28T14:54:26.877Z,5.43
2019-04-28T14:56:56.737Z,5.33
2019-04-28T14:59:26.925Z,5.20
2019-04-28T15:02:04.552Z,6.10
2019-04-28T15:04:59.648Z,5.50
2019-04-28T15:07:46.805Z,5.03
2019-04-28T15:10:25.770Z,4.80
2019-04-28T15:12:56.300Z,5.53
2019-04-28T15:15:26.044Z,5.30
2019-04-28T15:17:56.060Z,6.27
2019-04-28T15:20:25.773Z,5.43
2019-04-28T15:22:55.353Z,5.57
2019-04-28T15:25:24.951Z,5.07
2019-04-28T15:27:54.619Z,5.70
2019-04-28T15:30:24.535Z,4.67
2019-04-28T15:32:54.169Z,4.77
2019-04-28T15:35:23.722Z,4.80
2019-04-28T15:37:53.353Z,5.30
2019-04-28T15:40:23.202Z,6.40
2019-04-28T15:42:52.836Z,4.67
2019-04-28T15:45:22.464Z,5.80
2019-04-28T15:47:52.297Z,5.27
2019-04-28T15:50:25.023Z,4.30
2019-04-28T15:52:53.143Z,4.87
2019-04-28T15:55:28.666Z,5.83
2019-04-28T15:57:59.965Z,4.37
2019-04-28T16:00:29.815Z,4.80
2019-04-28T16:02:59.657Z,5.13
2019-04-28T16:05:29.326Z,5.00
2019-04-28T16:07:58.967Z,5.30
2019-04-28T16:10:28.596Z,4.50
2019-04-28T16:13:00.118Z,4.47
2019-04-28T16:15:29.892Z,4.67
2019-04-28T16:17:59.816Z,4.57
2019-04-28T16:20:29.914Z,4.40
2019-04-28T16:22:59.731Z,4.37
2019-04-28T16:25:29.988Z,4.63
2019-04-28T16:27:59.922Z,5.33
2019-04-28T16:30:29.658Z,5.10
2019-04-28T16:33:00.043Z,5.10
2019-04-28T16:35:30.049Z,4.43
2019-04-28T16:37:59.687Z,4.90
2019-04-28T16:40:51.654Z,4.93
2019-04-28T16:43:56.519Z,4.13
2019-04-28T16:46:26.340Z,4.00
2019-04-28T16:48:56.204Z,3.73
2019-04-28T16:51:26.169Z,3.77
2019-04-28T16:53:55.755Z,3.97
2019-04-28T16:56:40.399Z,3.90
2019-04-28T16:59:35.477Z,4.30
2019-04-28T17:02:11.265Z,4.90
2019-04-28T17:04:41.740Z,3.73
2019-04-28T17:07:12.159Z,4.00
2019-04-28T17:09:41.856Z,4.10
2019-04-28T17:12:13.741Z,4.10
2019-04-28T17:14:44.904Z,4.23
2019-04-28T17:17:15.407Z,3.63
2019-04-28T17:19:45.280Z,3.57
2019-04-28T17:22:15.336Z,4.40
2019-04-28T17:24:45.027Z,3.87
2019-04-28T17:27:15.298Z,3.87
2019-04-28T17:29:45.358Z,3.80
2019-04-28T17:32:15.183Z,4.07
2019-04-28T17:34:45.674Z,3.97
2019-04-28T17:37:15.951Z,4.20
2019-04-28T17:39:46.021Z,4.37
2019-04-28T17:42:15.767Z,4.27
2019-04-28T17:44:45.632Z,5.13
2019-04-28T17:47:16.900Z,3.73
2019-04-28T17:49:46.512Z,4.23
2019-04-28T17:52:16.343Z,4.87
2019-04-28T17:54:46.429Z,4.33
2019-04-28T17:57:16.619Z,4.63
2019-04-28T17:59:48.213Z,5.03
2019-04-28T18:02:36.688Z,3.93
2019-04-28T18:05:28.393Z,3.97
2019-04-28T18:08:02.011Z,4.10
2019-04-28T18:10:31.845Z,4.67
2019-04-28T18:13:01.467Z,5.00
2019-04-28T18:15:50.006Z,4.90
2019-04-28T18:18:25.569Z,3.73
2019-04-28T18:20:55.196Z,4.70
2019-04-28T18:23:24.786Z,4.43
2019-04-28T18:25:54.721Z,5.10
2019-04-28T18:28:24.517Z,5.35
2019-04-28T18:31:02.691Z,4.65
2019-04-28T18:33:54.275Z,3.87
2019-04-28T18:36:32.047Z,4.47
2019-04-28T18:39:17.020Z,4.17
2019-04-28T18:41:56.911Z,4.20
2019-04-28T18:44:26.485Z,4.10
2019-04-28T18:46:56.135Z,4.47
2019-04-28T18:49:25.705Z,4.45
2019-04-28T18:51:55.379Z,4.10
2019-04-28T18:54:25.006Z,4.05
2019-04-28T18:56:54.637Z,5.37
2019-04-28T18:59:24.512Z,4.58
2019-04-28T19:02:11.865Z,5.05
2019-04-28T19:04:41.681Z,5.17
2019-04-28T19:07:13.613Z,5.50
2019-04-28T19:09:58.775Z,4.87
2019-04-28T19:12:33.072Z,5.72
2019-04-28T19:15:20.307Z,5.83
2019-04-28T19:17:56.550Z,4.95
2019-04-28T19:20:26.232Z,4.65
2019-04-28T19:22:56.095Z,6.08
2019-04-28T19:25:25.765Z,6.10
2019-04-28T19:27:55.648Z,5.03
2019-04-28T19:30:26.640Z,5.60
2019-04-28T19:32:56.413Z,6.25
2019-04-28T19:35:26.033Z,6.70
2019-04-28T19:37:55.673Z,6.75
2019-04-28T19:40:25.626Z,6.53
2019-04-28T19:42:55.763Z,7.67
2019-04-28T19:45:25.379Z,6.50
2019-04-28T19:47:54.965Z,7.05
2019-04-28T19:50:24.619Z,6.47
2019-04-28T19:52:56.574Z,7.15
2019-04-28T19:55:30.572Z,7.47
2019-04-28T19:58:09.564Z,6.58
2019-04-28T20:00:44.001Z,6.97
2019-04-28T20:03:13.676Z,7.83
2019-04-28T20:05:43.561Z,8.93
2019-04-28T20:08:13.214Z,9.70
2019-04-28T20:10:43.110Z,9.25
2019-04-28T20:13:13.040Z,8.13
2019-04-28T20:15:42.671Z,10.00
2019-04-28T20:18:12.575Z,9.43
2019-04-28T20:20:42.243Z,9.55
2019-04-28T20:23:13.474Z,10.05
2019-04-28T20:25:43.403Z,10.10
2019-04-28T20:28:13.077Z,10.90
2019-04-28T20:30:42.825Z,10.35
2019-04-28T20:33:12.458Z,9.50
2019-04-28T20:35:47.412Z,8.18
2019-04-28T20:38:29.314Z,7.53
2019-04-28T20:41:04.634Z,8.25
2019-04-28T20:43:34.221Z,9.35
2019-04-28T20:46:03.880Z,9.45
2019-04-28T20:48:35.781Z,9.73
2019-04-28T20:51:05.949Z,8.43
2019-04-28T20:53:35.528Z,9.30
2019-04-28T20:56:05.061Z,8.65
2019-04-28T20:58:34.679Z,7.67
2019-04-28T21:01:04.835Z,7.28
2019-04-28T21:03:34.445Z,7.50
2019-04-28T21:06:04.052Z,6.75
2019-04-28T21:08:33.785Z,7.28
2019-04-28T21:11:03.411Z,6.97
2019-04-28T21:13:33.063Z,7.53
2019-04-28T21:16:02.720Z,6.10
2019-04-28T21:18:32.359Z,7.35
2019-04-28T21:21:02.208Z,7.90
2019-04-28T21:23:31.954Z,6.05
2019-04-28T21:26:01.590Z,7.47
2019-04-28T21:28:31.516Z,8.23
2019-04-28T21:31:01.198Z,7.65
2019-04-28T21:33:30.954Z,8.55
2019-04-28T21:36:00.685Z,9.25
2019-04-28T21:38:30.418Z,7.80
2019-04-28T21:41:02.293Z,8.23
2019-04-28T21:43:37.896Z,8.70
2019-04-28T21:46:38.980Z,6.58
2019-04-28T21:49:21.461Z,7.42
2019-04-28T21:51:51.278Z,7.72
2019-04-28T21:54:20.915Z,8.20
2019-04-28T21:56:50.497Z,8.88
2019-04-28T21:59:20.182Z,7.83
2019-04-28T22:01:50.328Z,7.22
2019-04-28T22:04:19.921Z,8.03
2019-04-28T22:06:49.529Z,7.53
2019-04-28T22:09:20.683Z,7.72
2019-04-28T22:11:50.571Z,7.15
2019-04-28T22:14:20.489Z,6.42
2019-04-28T22:16:50.104Z,7.28
2019-04-28T22:19:19.722Z,6.60
2019-04-28T22:21:49.291Z,7.22
2019-04-28T22:24:40.836Z,7.85
2019-04-28T22:27:12.971Z,7.20
2019-04-28T22:29:42.891Z,6.70
2019-04-28T22:32:12.535Z,7.08
2019-04-28T22:34:42.703Z,6.90
2019-04-28T22:37:12.249Z,7.30
2019-04-28T22:39:42.212Z,7.12
2019-04-28T22:42:12.006Z,8.83
2019-04-28T22:44:41.816Z,6.67
2019-04-28T22:47:13.700Z,7.55
2019-04-28T22:49:43.289Z,6.70
2019-04-28T22:52:12.908Z,7.92
2019-04-28T22:55:01.391Z,7.03
2019-04-28T22:57:49.939Z,8.30
2019-04-28T23:00:49.964Z,7.00
2019-04-28T23:03:34.021Z,6.78
2019-04-28T23:06:03.617Z,7.80
2019-04-28T23:08:33.214Z,6.92
2019-04-28T23:11:02.860Z,6.30
2019-04-28T23:13:32.463Z,6.85
2019-04-28T23:16:02.008Z,7.17
2019-04-28T23:18:31.636Z,6.50
2019-04-28T23:21:04.654Z,6.70
2019-04-28T23:23:34.244Z,7.12
2019-04-28T23:26:03.821Z,8.00
2019-04-28T23:28:33.702Z,7.03
2019-04-28T23:31:03.318Z,7.20
2019-04-28T23:33:32.947Z,7.75
2019-04-28T23:36:02.888Z,6.90
2019-04-28T23:38:32.559Z,7.40
2019-04-28T23:41:13.580Z,7.60
2019-04-28T23:43:43.190Z,7.47
2019-04-28T23:46:12.769Z,6.40
2019-04-28T23:48:42.641Z,7.53
2019-04-28T23:51:31.143Z,6.53
2019-04-28T23:54:03.237Z,6.42
2019-04-28T23:56:32.789Z,5.75
2019-04-28T23:59:02.526Z,6.37
